createdAt,value
2018-09-14T00:01:07.904Z,88.68
2018-09-14T00:03:36.354Z,88.52
2018-09-14T00:06:04.658Z,88.92
2018-09-14T00:08:32.973Z,89.17
2018-09-14T00:11:01.251Z,89.45
2018-09-14T00:13:29.566Z,89.45
2018-09-14T00:15:57.862Z,89.40
2018-09-14T00:18:26.154Z,88.68
2018-09-14T00:20:54.452Z,88.09
2018-09-14T00:23:22.739Z,87.29
2018-09-14T00:25:51.065Z,87.58
2018-09-14T00:28:19.395Z,88.10
2018-09-14T00:30:47.696Z,88.22
2018-09-14T00:33:15.967Z,88.49
2018-09-14T00:35:44.263Z,88.78
2018-09-14T00:38:12.559Z,89.73
2018-09-14T00:40:40.870Z,89.81
2018-09-14T00:43:09.155Z,89.76
2018-09-14T00:45:37.459Z,89.24
2018-09-14T00:48:05.771Z,89.12
2018-09-14T00:50:34.343Z,88.49
2018-09-14T00:53:02.624Z,87.64
2018-09-14T00:55:30.943Z,87.69
2018-09-14T00:57:59.594Z,87.55
2018-09-14T01:00:27.915Z,87.38
2018-09-14T01:02:56.218Z,87.43
2018-09-14T01:05:24.534Z,87.78
2018-09-14T01:07:53.380Z,88.30
2018-09-14T01:10:21.687Z,88.29
2018-09-14T01:12:49.971Z,88.70
2018-09-14T01:15:18.286Z,88.62
2018-09-14T01:17:46.987Z,88.83
2018-09-14T01:20:15.294Z,88.10
2018-09-14T01:22:43.593Z,88.35
2018-09-14T01:25:11.912Z,88.77
2018-09-14T01:27:40.529Z,88.36
2018-09-14T01:30:08.856Z,87.78
2018-09-14T01:32:37.155Z,88.34
2018-09-14T01:35:09.638Z,88.35
2018-09-14T01:37:37.914Z,88.16
2018-09-14T01:40:06.231Z,88.19
2018-09-14T01:42:34.591Z,88.83
2018-09-14T01:45:02.914Z,88.58
2018-09-14T01:47:31.214Z,88.11
2018-09-14T01:49:59.506Z,88.16
2018-09-14T01:52:27.798Z,88.17
2018-09-14T01:54:56.102Z,89.08
2018-09-14T01:57:24.395Z,88.45
2018-09-14T01:59:52.699Z,88.98
2018-09-14T02:02:20.967Z,88.95
2018-09-14T02:04:49.899Z,88.67
2018-09-14T02:07:18.194Z,88.53
2018-09-14T02:09:46.549Z,88.76
2018-09-14T02:12:14.877Z,88.34
2018-09-14T02:14:43.190Z,88.86
2018-09-14T02:17:11.498Z,88.92
2018-09-14T02:19:39.843Z,88.61
2018-09-14T02:22:08.154Z,88.59
2018-09-14T02:24:36.483Z,88.78
2018-09-14T02:27:04.827Z,88.59
2018-09-14T02:29:33.158Z,88.33
2018-09-14T02:32:01.476Z,88.03
2018-09-14T02:34:30.162Z,87.97
2018-09-14T02:36:58.487Z,87.77
2018-09-14T02:39:26.807Z,87.33
2018-09-14T02:41:55.158Z,87.38
2018-09-14T02:44:23.459Z,87.80
2018-09-14T02:46:51.777Z,87.69
2018-09-14T02:49:20.256Z,87.62
2018-09-14T02:51:49.381Z,88.19
2018-09-14T02:54:17.719Z,87.99
2018-09-14T02:56:46.035Z,88.35
2018-09-14T02:59:14.356Z,88.00
2018-09-14T03:01:42.675Z,87.96
2018-09-14T03:04:10.968Z,88.25
2018-09-14T03:06:39.284Z,88.41
2018-09-14T03:09:08.831Z,87.88
2018-09-14T03:11:37.730Z,87.77
2018-09-14T03:14:06.503Z,87.89
2018-09-14T03:16:34.919Z,87.65
2018-09-14T03:19:03.240Z,88.03
2018-09-14T03:21:31.558Z,88.09
2018-09-14T03:23:59.875Z,87.84
2018-09-14T03:26:28.203Z,87.83
2018-09-14T03:28:56.508Z,87.92
2018-09-14T03:31:25.051Z,88.31
2018-09-14T03:33:53.365Z,87.94
2018-09-14T03:36:21.692Z,87.71
2018-09-14T03:38:50.184Z,87.28
2018-09-14T03:41:18.506Z,88.00
2018-09-14T03:43:46.786Z,88.16
2018-09-14T03:46:15.100Z,87.35
2018-09-14T03:48:43.639Z,87.65
2018-09-14T03:51:12.025Z,87.27
2018-09-14T03:53:40.342Z,87.75
2018-09-14T03:56:08.663Z,87.25
2018-09-14T03:58:36.978Z,87.25
2018-09-14T04:01:05.318Z,86.99
2018-09-14T04:03:33.632Z,86.86
2018-09-14T04:06:01.960Z,87.05
2018-09-14T04:08:30.268Z,85.88
2018-09-14T04:10:58.631Z,86.21
2018-09-14T04:13:26.943Z,86.74
2018-09-14T04:15:55.252Z,86.60
2018-09-14T04:18:23.699Z,86.81
2018-09-14T04:20:52.028Z,86.90
2018-09-14T04:23:20.800Z,87.14
2018-09-14T04:25:49.090Z,87.17
2018-09-14T04:28:17.558Z,86.94
2018-09-14T04:30:45.922Z,87.08
2018-09-14T04:33:14.230Z,87.25
2018-09-14T04:35:42.576Z,86.87
2018-09-14T04:38:10.975Z,87.44
2018-09-14T04:40:39.891Z,87.35
2018-09-14T04:43:08.240Z,87.34
2018-09-14T04:45:37.167Z,86.45
2018-09-14T04:48:05.499Z,86.81
2018-09-14T04:50:33.988Z,86.75
2018-09-14T04:53:02.329Z,86.61
2018-09-14T04:55:30.654Z,87.22
2018-09-14T04:57:59.019Z,87.47
2018-09-14T05:00:27.320Z,87.66
2018-09-14T05:02:55.658Z,87.84
2018-09-14T05:05:23.950Z,87.69
2018-09-14T05:07:52.283Z,87.31
2018-09-14T05:10:20.576Z,86.53
2018-09-14T05:12:48.899Z,86.91
2018-09-14T05:15:17.310Z,87.62
2018-09-14T05:17:45.623Z,87.59
2018-09-14T05:20:13.937Z,87.61
2018-09-14T05:22:42.307Z,87.48
2018-09-14T05:25:10.653Z,87.18
2018-09-14T05:27:38.978Z,86.29
2018-09-14T05:30:07.331Z,86.97
2018-09-14T05:32:35.704Z,87.22
2018-09-14T05:35:04.383Z,86.80
2018-09-14T05:37:32.747Z,87.20
2018-09-14T05:40:01.051Z,86.28
2018-09-14T05:42:29.363Z,86.16
2018-09-14T05:44:57.676Z,85.91
2018-09-14T05:47:26.142Z,85.50
2018-09-14T05:49:54.431Z,84.71
2018-09-14T05:52:22.931Z,84.39
2018-09-14T05:54:51.239Z,83.27
2018-09-14T05:57:19.562Z,83.57
2018-09-14T05:59:47.868Z,83.62
2018-09-14T06:02:16.186Z,83.48
2018-09-14T06:04:44.491Z,82.78
2018-09-14T06:07:12.970Z,81.42
2018-09-14T06:09:41.256Z,79.95
2018-09-14T06:12:09.583Z,79.59
2018-09-14T06:14:37.891Z,79.44
2018-09-14T06:17:06.507Z,78.39
2018-09-14T06:19:34.711Z,78.68
2018-09-14T06:22:03.032Z,78.64
2018-09-14T06:24:31.335Z,75.70
2018-09-14T06:26:59.655Z,74.39
2018-09-14T06:29:27.958Z,72.84
2018-09-14T06:31:56.271Z,71.68
2018-09-14T06:34:24.583Z,70.95
2018-09-14T06:36:52.914Z,70.21
2018-09-14T06:39:21.211Z,66.99
2018-09-14T06:41:49.539Z,68.79
2018-09-14T06:44:17.863Z,70.48
2018-09-14T06:46:46.163Z,70.75
2018-09-14T06:49:14.509Z,70.78
2018-09-14T06:51:42.826Z,68.58
2018-09-14T06:54:11.159Z,66.41
2018-09-14T06:56:39.532Z,66.01
2018-09-14T06:59:08.317Z,65.88
2018-09-14T07:01:36.628Z,63.75
2018-09-14T07:04:04.946Z,63.39
2018-09-14T07:06:33.404Z,61.71
2018-09-14T07:09:01.619Z,62.65
2018-09-14T07:11:30.429Z,59.26
2018-09-14T07:13:58.748Z,58.33
2018-09-14T07:16:27.059Z,52.77
2018-09-14T07:18:55.397Z,46.85
2018-09-14T07:21:23.722Z,46.43
2018-09-14T07:23:52.023Z,49.62
2018-09-14T07:26:20.350Z,48.46
2018-09-14T07:28:49.003Z,47.96
2018-09-14T07:31:17.242Z,44.26
2018-09-14T07:33:45.584Z,41.25
2018-09-14T07:36:14.130Z,42.60
2018-09-14T07:38:42.483Z,42.14
2018-09-14T07:41:11.229Z,47.47
2018-09-14T07:43:39.547Z,44.59
2018-09-14T07:46:07.878Z,45.81
2018-09-14T07:48:36.210Z,44.55
2018-09-14T07:51:04.529Z,43.99
2018-09-14T07:53:32.831Z,46.03
2018-09-14T07:56:01.146Z,39.63
2018-09-14T07:58:29.568Z,35.04
2018-09-14T08:00:57.887Z,34.62
2018-09-14T08:03:26.204Z,31.33
2018-09-14T08:05:54.522Z,28.38
2018-09-14T08:08:22.855Z,26.09
2018-09-14T08:10:51.167Z,24.25
2018-09-14T08:13:19.570Z,26.26
2018-09-14T08:15:47.831Z,25.50
2018-09-14T08:18:16.156Z,25.75
2018-09-14T08:20:44.462Z,22.40
2018-09-14T08:23:12.779Z,24.06
2018-09-14T08:25:41.092Z,26.34
2018-09-14T08:28:09.411Z,29.01
2018-09-14T08:30:37.703Z,29.46
2018-09-14T08:33:06.255Z,29.40
2018-09-14T08:35:34.566Z,28.99
2018-09-14T08:38:02.878Z,26.03
2018-09-14T08:40:31.171Z,28.70
2018-09-14T08:42:59.483Z,28.50
2018-09-14T08:45:27.779Z,27.29
2018-09-14T08:47:56.163Z,28.13
2018-09-14T08:50:24.439Z,24.92
2018-09-14T08:52:52.765Z,25.48
2018-09-14T08:55:21.086Z,21.61
2018-09-14T08:57:49.390Z,21.62
2018-09-14T09:00:21.737Z,21.75
2018-09-14T09:02:50.811Z,23.22
2018-09-14T09:05:19.119Z,19.82
2018-09-14T09:07:47.562Z,20.19
2018-09-14T09:10:15.870Z,20.12
2018-09-14T09:12:44.440Z,19.31
2018-09-14T09:15:12.775Z,19.05
2018-09-14T09:17:41.325Z,20.34
2018-09-14T09:20:09.655Z,20.27
2018-09-14T09:22:37.971Z,20.46
2018-09-14T09:25:06.307Z,18.34
2018-09-14T09:27:34.887Z,18.04
2018-09-14T09:30:03.279Z,18.19
2018-09-14T09:32:31.750Z,17.73
2018-09-14T09:35:00.223Z,16.17
2018-09-14T09:37:29.015Z,16.46
2018-09-14T09:39:57.327Z,16.43
2018-09-14T09:42:25.659Z,17.09
2018-09-14T09:44:53.972Z,17.96
2018-09-14T09:47:22.291Z,21.01
2018-09-14T09:49:50.602Z,22.12
2018-09-14T09:52:18.954Z,23.04
2018-09-14T09:54:47.279Z,24.31
2018-09-14T09:57:15.602Z,25.16
2018-09-14T09:59:43.931Z,24.23
2018-09-14T10:02:17.623Z,26.52
2018-09-14T10:04:51.072Z,28.83
2018-09-14T10:07:19.357Z,29.44
2018-09-14T10:09:47.702Z,29.52
2018-09-14T10:12:16.595Z,29.29
2018-09-14T10:14:44.936Z,28.70
2018-09-14T10:17:13.251Z,27.08
2018-09-14T10:19:41.583Z,25.88
2018-09-14T10:22:09.895Z,23.33
2018-09-14T10:24:38.494Z,19.41
2018-09-14T10:27:06.843Z,18.98
2018-09-14T10:29:35.167Z,14.67
2018-09-14T10:32:03.483Z,19.35
2018-09-14T10:34:32.317Z,21.20
2018-09-14T10:37:00.710Z,22.96
2018-09-14T10:39:29.022Z,28.33
2018-09-14T10:41:57.307Z,28.73
2018-09-14T10:44:25.640Z,29.35
2018-09-14T10:46:53.974Z,27.16
2018-09-14T10:49:22.303Z,27.70
2018-09-14T10:51:50.654Z,27.63
2018-09-14T10:54:19.429Z,27.34
2018-09-14T10:56:47.791Z,29.29
2018-09-14T10:59:16.338Z,28.77
2018-09-14T11:01:44.643Z,29.66
2018-09-14T11:04:12.971Z,30.58
2018-09-14T11:06:41.369Z,30.54
2018-09-14T11:09:11.674Z,32.07
2018-09-14T11:11:39.978Z,31.01
2018-09-14T11:14:08.551Z,32.12
2018-09-14T11:16:36.871Z,31.76
2018-09-14T11:19:05.222Z,30.82
2018-09-14T11:21:33.760Z,31.02
2018-09-14T11:24:02.209Z,31.10
2018-09-14T11:26:30.545Z,32.30
2018-09-14T11:28:59.489Z,31.83
2018-09-14T11:31:28.715Z,29.34
2018-09-14T11:33:57.661Z,27.78
2018-09-14T11:36:26.430Z,27.53
2018-09-14T11:38:54.915Z,30.29
2018-09-14T11:41:23.224Z,31.73
2018-09-14T11:43:51.747Z,31.70
2018-09-14T11:46:20.860Z,30.31
2018-09-14T11:48:49.951Z,32.54
2018-09-14T11:51:18.283Z,34.19
2018-09-14T11:53:46.571Z,33.43
2018-09-14T11:56:14.891Z,32.39
2018-09-14T11:58:43.206Z,33.38
2018-09-14T12:01:11.569Z,32.63
2018-09-14T12:03:39.875Z,32.43
2018-09-14T12:06:08.219Z,32.90
2018-09-14T12:08:36.515Z,31.85
2018-09-14T12:11:04.871Z,31.53
2018-09-14T12:13:33.256Z,26.54
2018-09-14T12:16:01.534Z,24.65
2018-09-14T12:18:29.843Z,23.94
2018-09-14T12:20:58.215Z,25.84
2018-09-14T12:23:26.527Z,27.67
2018-09-14T12:25:54.846Z,29.91
2018-09-14T12:28:23.214Z,32.15
2018-09-14T12:30:51.652Z,34.32
2018-09-14T12:33:19.963Z,35.77
2018-09-14T12:35:48.555Z,36.49
2018-09-14T12:38:16.878Z,36.02
2018-09-14T12:40:45.211Z,37.21
2018-09-14T12:43:13.519Z,38.76
2018-09-14T12:45:41.849Z,39.26
2018-09-14T12:48:10.183Z,39.38
2018-09-14T12:50:38.523Z,38.06
2018-09-14T12:53:06.791Z,38.00
2018-09-14T12:55:35.104Z,38.78
2018-09-14T12:58:03.379Z,39.02
2018-09-14T13:00:31.678Z,36.57
2018-09-14T13:03:00.287Z,34.43
2018-09-14T13:05:28.623Z,33.99
2018-09-14T13:07:56.903Z,34.36
2018-09-14T13:10:25.205Z,34.23
2018-09-14T13:12:53.887Z,34.60
2018-09-14T13:15:22.199Z,28.66
2018-09-14T13:17:50.473Z,25.75
2018-09-14T13:20:18.798Z,26.81
2018-09-14T13:22:47.079Z,28.08
2018-09-14T13:25:15.410Z,31.83
2018-09-14T13:27:43.698Z,32.91
2018-09-14T13:30:12.019Z,29.61
2018-09-14T13:32:43.023Z,26.54
2018-09-14T13:35:11.463Z,22.74
2018-09-14T13:37:39.746Z,23.36
2018-09-14T13:40:08.083Z,23.20
2018-09-14T13:42:36.355Z,22.58
2018-09-14T13:45:05.103Z,21.95
2018-09-14T13:47:33.375Z,22.22
2018-09-14T13:50:01.715Z,21.98
2018-09-14T13:52:30.134Z,24.36
2018-09-14T13:54:58.445Z,28.76
2018-09-14T13:57:26.762Z,30.64
2018-09-14T13:59:55.043Z,33.55
2018-09-14T14:02:23.567Z,35.69
2018-09-14T14:04:51.861Z,35.59
2018-09-14T14:07:20.151Z,37.74
2018-09-14T14:09:48.475Z,38.02
2018-09-14T14:12:16.735Z,37.62
2018-09-14T14:14:45.023Z,36.47
2018-09-14T14:17:13.315Z,37.29
2018-09-14T14:19:41.604Z,36.61
2018-09-14T14:22:09.899Z,35.64
2018-09-14T14:24:38.183Z,36.27
2018-09-14T14:27:07.466Z,37.85
2018-09-14T14:29:35.754Z,38.02
2018-09-14T14:32:04.075Z,39.13
2018-09-14T14:34:32.359Z,35.77
2018-09-14T14:37:00.883Z,32.33
2018-09-14T14:39:29.184Z,32.46
2018-09-14T14:41:57.506Z,32.19
2018-09-14T14:44:25.839Z,32.53
2018-09-14T14:46:54.149Z,32.37
2018-09-14T14:49:22.465Z,33.35
2018-09-14T14:51:50.768Z,33.73
2018-09-14T14:54:19.068Z,35.50
2018-09-14T14:56:47.368Z,37.29
2018-09-14T14:59:15.659Z,39.17
2018-09-14T15:01:43.983Z,38.94
2018-09-14T15:04:12.301Z,39.05
2018-09-14T15:06:42.577Z,40.24
2018-09-14T15:09:11.986Z,40.51
2018-09-14T15:11:40.738Z,40.73
2018-09-14T15:14:09.195Z,41.21
2018-09-14T15:16:37.795Z,41.91
2018-09-14T15:19:06.187Z,40.79
2018-09-14T15:21:34.499Z,41.69
2018-09-14T15:24:02.769Z,41.34
2018-09-14T15:26:31.066Z,40.98
2018-09-14T15:28:59.331Z,40.38
2018-09-14T15:31:27.622Z,39.77
2018-09-14T15:33:55.915Z,39.89
2018-09-14T15:36:24.186Z,38.94
2018-09-14T15:38:52.451Z,39.87
2018-09-14T15:41:20.744Z,40.14
2018-09-14T15:43:49.142Z,39.77
2018-09-14T15:46:17.330Z,40.60
2018-09-14T15:48:45.616Z,40.42
2018-09-14T15:51:13.951Z,41.96
2018-09-14T15:53:42.231Z,43.02
2018-09-14T15:56:11.514Z,42.97
2018-09-14T15:58:39.802Z,43.18
2018-09-14T16:01:08.138Z,43.58
2018-09-14T16:03:36.442Z,44.06
2018-09-14T16:06:04.739Z,44.26
2018-09-14T16:08:33.067Z,43.80
2018-09-14T16:11:01.922Z,43.27
2018-09-14T16:13:30.203Z,42.71
2018-09-14T16:15:58.503Z,42.56
2018-09-14T16:18:26.795Z,43.15
2018-09-14T16:20:55.077Z,43.95
2018-09-14T16:23:23.369Z,44.92
2018-09-14T16:25:51.658Z,45.23
2018-09-14T16:28:19.948Z,44.41
2018-09-14T16:30:49.070Z,45.27
2018-09-14T16:33:17.343Z,44.74
2018-09-14T16:35:45.634Z,44.93
2018-09-14T16:38:13.939Z,45.38
2018-09-14T16:40:42.207Z,45.86
2018-09-14T16:43:10.763Z,46.00
2018-09-14T16:45:39.022Z,46.03
2018-09-14T16:48:07.326Z,45.99
2018-09-14T16:50:35.619Z,45.64
2018-09-14T16:53:03.923Z,47.55
2018-09-14T16:55:32.183Z,46.98
2018-09-14T16:58:01.087Z,46.85
2018-09-14T17:00:29.367Z,46.40
2018-09-14T17:02:57.663Z,46.90
2018-09-14T17:05:25.931Z,47.05
2018-09-14T17:07:54.243Z,47.20
2018-09-14T17:10:22.524Z,47.55
2018-09-14T17:12:50.815Z,47.40
2018-09-14T17:15:19.099Z,47.43
2018-09-14T17:17:47.390Z,47.58
2018-09-14T17:20:15.670Z,47.12
2018-09-14T17:22:44.368Z,47.86
2018-09-14T17:25:12.656Z,47.72
2018-09-14T17:27:40.945Z,47.99
2018-09-14T17:30:09.223Z,48.29
2018-09-14T17:32:37.544Z,48.94
2018-09-14T17:35:06.495Z,49.16
2018-09-14T17:37:34.780Z,48.99
2018-09-14T17:40:03.070Z,49.93
2018-09-14T17:42:31.371Z,50.38
2018-09-14T17:44:59.649Z,50.89
2018-09-14T17:47:28.176Z,51.45
2018-09-14T17:49:56.448Z,52.87
2018-09-14T17:52:24.738Z,53.88
2018-09-14T17:54:53.023Z,54.09
2018-09-14T17:57:21.405Z,55.04
2018-09-14T17:59:49.616Z,55.19
2018-09-14T18:02:18.100Z,56.30
2018-09-14T18:04:46.567Z,56.87
2018-09-14T18:07:14.859Z,57.47
2018-09-14T18:09:43.135Z,58.04
2018-09-14T18:12:11.484Z,58.91
2018-09-14T18:14:39.756Z,59.63
2018-09-14T18:17:08.047Z,59.55
2018-09-14T18:19:36.339Z,60.03
2018-09-14T18:22:04.660Z,60.33
2018-09-14T18:24:32.947Z,60.87
2018-09-14T18:27:01.235Z,61.32
2018-09-14T18:29:29.562Z,61.92
2018-09-14T18:31:57.839Z,62.25
2018-09-14T18:34:26.146Z,62.35
2018-09-14T18:36:54.764Z,62.45
2018-09-14T18:39:23.075Z,62.55
2018-09-14T18:41:51.366Z,62.99
2018-09-14T18:44:20.539Z,62.51
2018-09-14T18:46:48.856Z,61.85
2018-09-14T18:49:17.163Z,61.18
2018-09-14T18:51:45.463Z,60.85
2018-09-14T18:54:13.800Z,61.18
2018-09-14T18:56:42.078Z,60.83
2018-09-14T18:59:10.350Z,60.90
2018-09-14T19:01:38.683Z,61.54
2018-09-14T19:04:07.175Z,63.25
2018-09-14T19:06:35.448Z,63.62
2018-09-14T19:09:05.050Z,63.85
2018-09-14T19:11:33.318Z,63.66
2018-09-14T19:14:01.603Z,63.42
2018-09-14T19:16:29.984Z,62.79
2018-09-14T19:18:58.279Z,62.77
2018-09-14T19:21:26.559Z,61.40
2018-09-14T19:23:54.830Z,61.64
2018-09-14T19:26:23.135Z,61.83
2018-09-14T19:28:51.415Z,62.65
2018-09-14T19:31:19.746Z,63.32
2018-09-14T19:33:48.335Z,63.06
2018-09-14T19:36:16.658Z,63.00
2018-09-14T19:38:44.963Z,63.70
2018-09-14T19:41:13.523Z,63.75
2018-09-14T19:44:12.447Z,64.36
2018-09-14T19:46:40.727Z,65.39
2018-09-14T19:49:09.355Z,64.65
2018-09-14T19:51:38.401Z,65.50
2018-09-14T19:54:07.091Z,66.20
2018-09-14T19:56:35.933Z,66.46
2018-09-14T19:59:04.219Z,67.23
2018-09-14T20:01:32.652Z,68.03
2018-09-14T20:04:01.936Z,68.42
2018-09-14T20:06:30.483Z,68.81
2018-09-14T20:08:58.759Z,68.55
2018-09-14T20:11:27.120Z,69.22
2018-09-14T20:13:55.870Z,70.21
2018-09-14T20:16:24.254Z,69.09
2018-09-14T20:18:52.575Z,69.12
2018-09-14T20:21:20.935Z,68.31
2018-09-14T20:23:50.547Z,68.25
2018-09-14T20:26:19.199Z,68.23
2018-09-14T20:28:47.889Z,67.74
2018-09-14T20:31:16.611Z,68.27
2018-09-14T20:33:45.576Z,67.87
2018-09-14T20:36:14.951Z,68.08
2018-09-14T20:38:43.237Z,68.68
2018-09-14T20:41:11.569Z,68.31
2018-09-14T20:43:39.860Z,67.72
2018-09-14T20:46:10.843Z,68.38
2018-09-14T20:48:39.986Z,68.53
2018-09-14T20:51:08.267Z,68.06
2018-09-14T20:53:39.687Z,67.67
2018-09-14T20:56:09.959Z,67.52
2018-09-14T20:58:38.515Z,68.05
2018-09-14T21:01:07.445Z,68.02
2018-09-14T21:03:35.961Z,68.72
2018-09-14T21:06:04.266Z,68.84
2018-09-14T21:08:32.551Z,69.32
2018-09-14T21:11:01.075Z,69.42
2018-09-14T21:13:30.787Z,69.46
2018-09-14T21:15:59.494Z,69.53
2018-09-14T21:18:28.551Z,69.75
2018-09-14T21:20:57.749Z,70.51
2018-09-14T21:23:26.723Z,70.45
2018-09-14T21:25:55.223Z,71.27
2018-09-14T21:28:23.582Z,70.70
2018-09-14T21:30:51.874Z,71.17
2018-09-14T21:33:21.894Z,71.49
2018-09-14T21:35:50.147Z,72.07
2018-09-14T21:38:20.599Z,72.81
2018-09-14T21:40:48.870Z,73.04
2018-09-14T21:43:17.354Z,73.56
2018-09-14T21:45:45.611Z,72.76
2018-09-14T21:48:14.139Z,72.67
2018-09-14T21:50:42.451Z,72.67
2018-09-14T21:53:10.798Z,72.64
2018-09-14T21:55:40.515Z,72.11
2018-09-14T21:58:10.263Z,72.10
2018-09-14T22:00:44.247Z,72.58
2018-09-14T22:03:12.546Z,72.91
2018-09-14T22:05:40.803Z,73.45
2018-09-14T22:08:09.110Z,73.98
2018-09-14T22:10:37.947Z,74.57
2018-09-14T22:13:06.982Z,74.95
2018-09-14T22:15:35.964Z,75.05
2018-09-14T22:18:05.068Z,75.19
2018-09-14T22:20:33.415Z,75.13
2018-09-14T22:23:01.715Z,75.32
2018-09-14T22:25:30.015Z,74.67
2018-09-14T22:27:58.290Z,74.48
2018-09-14T22:30:26.579Z,73.46
2018-09-14T22:32:54.851Z,73.62
2018-09-14T22:35:23.162Z,73.15
2018-09-14T22:37:51.415Z,73.33
2018-09-14T22:40:19.706Z,73.76
2018-09-14T22:42:47.987Z,74.03
2018-09-14T22:45:16.299Z,73.46
2018-09-14T22:47:44.583Z,73.92
2018-09-14T22:50:12.902Z,73.47
2018-09-14T22:52:41.194Z,73.72
2018-09-14T22:55:10.099Z,73.72
2018-09-14T22:57:38.358Z,73.96
2018-09-14T23:00:06.683Z,73.71
2018-09-14T23:02:34.951Z,73.59
2018-09-14T23:05:03.231Z,73.80
2018-09-14T23:07:31.507Z,74.50
2018-09-14T23:10:00.415Z,74.55
2018-09-14T23:12:28.679Z,74.42
2018-09-14T23:14:56.974Z,74.40
2018-09-14T23:17:25.243Z,74.73
2018-09-14T23:19:53.555Z,75.29
2018-09-14T23:22:21.827Z,75.21
2018-09-14T23:24:50.111Z,75.89
2018-09-14T23:27:18.442Z,75.66
2018-09-14T23:29:46.727Z,75.92
2018-09-14T23:32:15.055Z,76.32
2018-09-14T23:34:43.349Z,76.22
2018-09-14T23:37:11.618Z,76.05
2018-09-14T23:39:39.923Z,77.11
2018-09-14T23:42:08.232Z,76.74
2018-09-14T23:44:36.492Z,77.65
2018-09-14T23:47:04.848Z,77.65
2018-09-14T23:49:33.123Z,77.90
2018-09-14T23:52:01.517Z,77.35
2018-09-14T23:54:29.791Z,78.08
2018-09-14T23:56:58.103Z,78.42
2018-09-14T23:59:26.415Z,78.42
